Time;durP1;ratioP1;P1;durP2;ratioP2;P2;SDS_P1;SDS_P2;PMS_P1;PMS_P2;Temp;Humidity;BMP_temperature;BMP_pressure;BME280_temperature;BME280_humidity;BME280_pressure;Samples;Min_cycle;Max_cycle;Signal;HPM_P1;HPM_P2
2023/08/21 00:01:16;;;;;;;6.07;2.08;;;15.90;99.90;;;;;;5055080;28;20036;-65
2023/08/21 00:03:42;;;;;;;5.10;1.50;;;15.80;99.90;;;;;;5064796;28;20079;-64
2023/08/21 00:06:08;;;;;;;4.80;1.67;;;15.80;99.90;;;;;;5046140;28;20048;-65
2023/08/21 00:08:33;;;;;;;7.15;2.00;;;15.70;99.90;;;;;;5065196;28;20044;-64
2023/08/21 00:10:59;;;;;;;7.75;2.50;;;15.70;99.90;;;;;;5064784;28;20094;-65
2023/08/21 00:13:24;;;;;;;7.57;2.38;;;15.60;99.90;;;;;;5064865;28;20136;-65
2023/08/21 00:15:50;;;;;;;7.93;2.53;;;15.50;99.90;;;;;;5052920;28;20395;-65
2023/08/21 00:18:15;;;;;;;7.10;2.35;;;15.50;99.90;;;;;;5064812;28;20070;-65
2023/08/21 00:20:42;;;;;;;7.75;2.53;;;15.50;99.90;;;;;;5055389;28;20404;-66
2023/08/21 00:23:08;;;;;;;7.97;2.40;;;15.60;99.90;;;;;;5046212;28;20549;-65
2023/08/21 00:25:34;;;;;;;8.60;2.60;;;15.60;99.90;;;;;;5044706;28;20492;-65
2023/08/21 00:28:00;;;;;;;7.03;2.42;;;15.60;99.90;;;;;;5045475;28;20043;-64
2023/08/21 00:30:26;;;;;;;7.65;2.70;;;15.60;99.90;;;;;;5044986;28;20099;-66
2023/08/21 00:32:52;;;;;;;11.35;3.00;;;15.60;99.90;;;;;;5026812;28;20225;-65
2023/08/21 00:35:17;;;;;;;8.32;2.80;;;15.60;99.90;;;;;;5031782;28;20123;-65
2023/08/21 00:37:43;;;;;;;8.40;2.53;;;15.60;99.90;;;;;;5065891;28;20032;-65
2023/08/21 00:40:09;;;;;;;9.45;2.70;;;15.60;99.90;;;;;;5065904;28;20036;-64
2023/08/21 00:42:35;;;;;;;7.00;2.42;;;15.60;99.90;;;;;;5047720;28;20050;-64
2023/08/21 00:45:00;;;;;;;10.43;2.35;;;15.60;99.90;;;;;;5064428;28;20033;-64
2023/08/21 00:47:26;;;;;;;6.32;2.40;;;15.50;99.90;;;;;;5096711;28;20044;-64
2023/08/21 00:49:52;;;;;;;8.30;2.40;;;15.50;99.90;;;;;;5063035;28;20567;-64
2023/08/21 00:52:17;;;;;;;5.45;2.05;;;15.40;99.90;;;;;;5045527;28;20404;-65
2023/08/21 00:54:43;;;;;;;5.80;2.30;;;15.40;99.90;;;;;;5045260;28;20045;-63
2023/08/21 00:57:10;;;;;;;7.97;2.45;;;15.40;99.90;;;;;;5043763;28;20504;-64
2023/08/21 00:59:37;;;;;;;7.75;1.90;;;15.40;99.90;;;;;;5044293;28;20048;-64
2023/08/21 01:02:02;;;;;;;4.82;1.77;;;15.40;99.90;;;;;;5055984;28;20760;-64
2023/08/21 01:04:28;;;;;;;4.97;1.98;;;15.30;99.90;;;;;;5063974;28;20059;-65
2023/08/21 01:06:54;;;;;;;6.60;2.10;;;15.30;99.90;;;;;;5046025;28;20530;-65
2023/08/21 01:09:36;;;;;;;4.95;1.92;;;15.30;99.90;;;;;;5045241;28;20087;-64
2023/08/21 01:12:19;;;;;;;7.53;2.03;;;15.20;99.90;;;;;;5043917;28;20128;-63
2023/08/21 01:14:54;;;;;;;3.70;1.67;;;15.10;99.90;;;;;;5053890;28;20475;-64
2023/08/21 01:17:22;;;;;;;6.00;2.13;;;15.00;99.90;;;;;;5044922;28;20373;-64
2023/08/21 01:19:49;;;;;;;6.28;2.03;;;14.90;99.90;;;;;;5047115;28;20395;-65
2023/08/21 01:22:15;;;;;;;6.50;1.92;;;14.90;99.90;;;;;;5079738;28;20067;-64
2023/08/21 01:24:41;;;;;;;3.58;1.45;;;14.90;99.90;;;;;;5063641;28;20036;-64
2023/08/21 01:27:07;;;;;;;5.60;1.88;;;14.90;99.90;;;;;;5063259;28;20483;-66
2023/08/21 01:29:33;;;;;;;4.72;1.55;;;14.80;99.90;;;;;;5044134;28;20049;-64
2023/08/21 01:32:07;;;;;;;5.07;1.88;;;14.70;99.90;;;;;;5055134;28;20360;-63
2023/08/21 01:34:36;;;;;;;5.78;2.13;;;14.60;99.90;;;;;;5064907;28;20051;-64
2023/08/21 01:37:02;;;;;;;6.68;2.40;;;14.60;99.90;;;;;;5044384;28;20060;-64
2023/08/21 01:39:28;;;;;;;6.78;2.20;;;14.60;99.90;;;;;;5043197;28;20482;-64
2023/08/21 01:41:56;;;;;;;8.90;2.63;;;14.70;99.90;;;;;;5043380;28;20041;-63
2023/08/21 01:44:21;;;;;;;6.35;1.80;;;14.70;99.90;;;;;;5043806;28;20500;-63
2023/08/21 01:46:47;;;;;;;3.53;1.70;;;14.60;99.90;;;;;;5043524;28;20047;-64
2023/08/21 01:49:12;;;;;;;3.58;1.60;;;14.60;99.90;;;;;;5043640;28;20447;-64
2023/08/21 01:51:38;;;;;;;3.88;1.42;;;14.50;99.90;;;;;;5043560;28;20188;-63
2023/08/21 01:54:03;;;;;;;3.10;1.50;;;14.50;99.90;;;;;;5027027;28;20053;-64
2023/08/21 01:56:29;;;;;;;4.10;1.40;;;14.40;99.90;;;;;;5043309;28;20134;-64
2023/08/21 01:58:55;;;;;;;4.22;1.27;;;14.30;99.90;;;;;;5043303;28;20041;-65
2023/08/21 02:01:20;;;;;;;1.58;0.70;;;14.30;99.90;;;;;;5050004;28;20128;-65
2023/08/21 02:03:46;;;;;;;17.10;1.27;;;14.20;99.90;;;;;;5046669;28;20048;-64
2023/08/21 02:06:12;;;;;;;6.18;1.20;;;14.20;99.90;;;;;;5052926;28;20050;-66
2023/08/21 02:08:37;;;;;;;2.70;1.00;;;14.20;99.90;;;;;;5043148;28;20103;-64
2023/08/21 02:11:03;;;;;;;2.63;0.65;;;14.20;99.90;;;;;;5076835;28;20052;-65
2023/08/21 02:13:29;;;;;;;1.55;0.70;;;14.20;99.90;;;;;;5047651;28;20048;-64
2023/08/21 02:15:54;;;;;;;1.88;0.90;;;14.20;99.90;;;;;;5048785;28;20262;-65
2023/08/21 02:18:20;;;;;;;2.60;0.80;;;14.20;99.90;;;;;;5050407;28;20041;-64
2023/08/21 02:20:47;;;;;;;1.30;0.70;;;14.20;99.90;;;;;;5060119;28;20333;-64
2023/08/21 02:23:12;;;;;;;0.77;0.57;;;14.20;99.90;;;;;;5048164;28;20037;-64
2023/08/21 02:25:38;;;;;;;1.75;0.80;;;14.20;99.90;;;;;;5056431;28;20056;-64
2023/08/21 02:28:04;;;;;;;25.27;1.50;;;14.20;99.90;;;;;;5066931;28;20051;-67
2023/08/21 02:30:29;;;;;;;1.35;0.60;;;14.20;99.90;;;;;;5050260;28;20048;-66
2023/08/21 02:32:55;;;;;;;1.67;0.77;;;14.20;99.90;;;;;;5064936;28;20305;-66
2023/08/21 02:35:20;;;;;;;5.68;1.08;;;14.10;99.90;;;;;;5045560;28;20044;-66
2023/08/21 02:37:46;;;;;;;3.90;0.90;;;14.10;99.90;;;;;;5046531;28;20040;-65
2023/08/21 02:40:12;;;;;;;3.47;0.98;;;14.10;99.90;;;;;;5058030;28;20404;-65
2023/08/21 02:42:37;;;;;;;3.80;1.50;;;14.10;99.90;;;;;;5066560;28;20113;-65
2023/08/21 02:45:07;;;;;;;4.43;1.60;;;14.10;99.90;;;;;;5064370;28;20048;-65
2023/08/21 02:47:36;;;;;;;4.18;1.58;;;14.10;99.90;;;;;;5046901;28;20064;-65
2023/08/21 02:50:03;;;;;;;8.07;1.42;;;14.10;99.90;;;;;;5046442;28;20525;-65
2023/08/21 02:52:29;;;;;;;4.50;1.40;;;14.10;99.90;;;;;;5049540;28;20307;-65
2023/08/21 02:54:54;;;;;;;4.43;1.25;;;14.00;99.90;;;;;;5064447;28;20511;-65
2023/08/21 02:57:20;;;;;;;5.25;1.25;;;13.90;99.90;;;;;;5066085;28;20525;-65
2023/08/21 02:59:45;;;;;;;4.63;1.50;;;13.70;99.90;;;;;;5066296;28;20070;-65
2023/08/21 03:02:11;;;;;;;3.85;1.30;;;13.60;99.90;;;;;;5064636;28;20053;-65
2023/08/21 03:04:37;;;;;;;3.10;1.20;;;13.60;99.90;;;;;;5066142;28;20047;-66
2023/08/21 03:07:02;;;;;;;3.00;1.20;;;13.60;99.90;;;;;;5047527;28;20079;-65
2023/08/21 03:09:28;;;;;;;3.20;1.00;;;13.60;99.90;;;;;;5046368;28;20044;-65
2023/08/21 03:11:54;;;;;;;13.45;1.50;;;13.50;99.90;;;;;;5059461;28;20084;-66
2023/08/21 03:14:19;;;;;;;3.25;1.13;;;13.50;99.90;;;;;;5066053;28;20037;-66
2023/08/21 03:16:45;;;;;;;3.40;1.20;;;13.40;99.90;;;;;;5060357;28;20066;-65
2023/08/21 03:19:10;;;;;;;11.32;1.27;;;13.30;99.90;;;;;;5066076;28;20040;-65
2023/08/21 03:21:36;;;;;;;2.50;1.10;;;13.30;99.90;;;;;;5052244;28;20041;-65
2023/08/21 03:24:02;;;;;;;3.08;1.08;;;13.20;99.90;;;;;;5046256;28;20029;-64
2023/08/21 03:26:27;;;;;;;3.45;1.17;;;13.20;99.90;;;;;;5047002;28;20404;-64
2023/08/21 03:28:53;;;;;;;4.93;1.23;;;13.20;99.90;;;;;;5029227;28;20041;-64
2023/08/21 03:31:18;;;;;;;2.67;1.08;;;13.20;99.90;;;;;;5046391;28;20377;-65
2023/08/21 03:33:44;;;;;;;2.25;0.90;;;13.30;99.90;;;;;;5045701;28;20071;-66
2023/08/21 03:36:10;;;;;;;4.00;1.23;;;13.20;99.90;;;;;;5045342;28;20148;-65
2023/08/21 03:38:35;;;;;;;2.83;0.90;;;13.20;99.90;;;;;;5045862;28;20071;-62
2023/08/21 03:41:01;;;;;;;3.22;0.90;;;13.10;99.90;;;;;;5046815;28;20041;-64
2023/08/21 03:43:27;;;;;;;3.00;1.20;;;13.10;99.90;;;;;;5049579;28;20372;-64
2023/08/21 03:45:53;;;;;;;3.08;1.17;;;13.10;99.90;;;;;;5045619;28;20037;-64
2023/08/21 03:48:18;;;;;;;2.47;0.90;;;13.20;99.90;;;;;;5045609;28;20053;-65
2023/08/21 03:50:44;;;;;;;4.18;1.60;;;13.20;99.90;;;;;;5079392;28;20045;-65
2023/08/21 03:53:09;;;;;;;36.38;3.28;;;13.20;99.90;;;;;;5078926;28;20133;-66
2023/08/21 03:55:35;;;;;;;35.90;3.58;;;13.10;99.90;;;;;;5045214;28;20051;-66
2023/08/21 03:58:01;;;;;;;4.68;1.40;;;13.10;99.90;;;;;;5045055;28;20095;-65
2023/08/21 04:00:26;;;;;;;5.80;1.50;;;13.10;99.90;;;;;;5049869;28;20130;-64
2023/08/21 04:02:52;;;;;;;49.40;2.55;;;13.10;99.90;;;;;;5046768;28;20049;-64
2023/08/21 04:05:17;;;;;;;3.58;1.20;;;13.00;99.90;;;;;;5046957;28;20850;-65
2023/08/21 04:07:43;;;;;;;2.15;1.00;;;12.90;99.90;;;;;;5064963;28;20127;-66
2023/08/21 04:10:09;;;;;;;2.05;0.93;;;12.80;99.90;;;;;;5057558;28;20036;-64
2023/08/21 04:12:34;;;;;;;2.10;0.90;;;12.80;99.90;;;;;;5046305;28;20437;-65
2023/08/21 04:15:00;;;;;;;3.22;1.10;;;12.90;99.90;;;;;;5046506;28;20095;-66
2023/08/21 04:17:26;;;;;;;2.55;0.98;;;12.90;99.90;;;;;;5045529;28;20041;-65
2023/08/21 04:19:51;;;;;;;2.25;0.82;;;12.90;99.90;;;;;;5046143;28;20037;-65
2023/08/21 04:22:17;;;;;;;2.85;0.93;;;13.00;99.90;;;;;;5046013;28;20095;-65
2023/08/21 04:24:43;;;;;;;3.70;1.08;;;13.00;99.90;;;;;;5054305;28;20640;-65
2023/08/21 04:27:08;;;;;;;7.60;1.23;;;13.00;99.90;;;;;;5045733;28;20479;-65
2023/08/21 04:29:38;;;;;;;2.95;1.20;;;12.90;99.90;;;;;;5059009;28;20450;-66
2023/08/21 04:32:05;;;;;;;14.68;1.80;;;12.90;99.90;;;;;;5062969;28;20044;-64
2023/08/21 04:34:32;;;;;;;2.38;1.00;;;12.90;99.90;;;;;;5065724;28;20047;-65
2023/08/21 04:36:58;;;;;;;1.92;1.00;;;12.90;99.90;;;;;;5045345;28;20482;-65
2023/08/21 04:39:24;;;;;;;3.25;1.20;;;12.80;99.90;;;;;;5047855;28;20344;-65
2023/08/21 04:41:49;;;;;;;3.00;0.90;;;12.90;99.90;;;;;;5064292;28;20037;-65
2023/08/21 04:44:15;;;;;;;2.45;0.88;;;13.00;99.90;;;;;;5064169;28;20110;-64
2023/08/21 04:46:40;;;;;;;2.13;0.90;;;13.10;99.90;;;;;;5057009;28;20123;-64
2023/08/21 04:49:06;;;;;;;2.38;0.90;;;13.20;99.90;;;;;;5064462;28;20147;-65
2023/08/21 04:51:32;;;;;;;1.33;0.82;;;13.30;99.90;;;;;;5051890;28;20045;-64
2023/08/21 04:53:59;;;;;;;2.00;0.85;;;13.50;99.90;;;;;;5044218;28;20051;-65
2023/08/21 04:56:25;;;;;;;2.03;0.85;;;13.60;99.90;;;;;;5044171;28;20029;-66
2023/08/21 04:58:51;;;;;;;3.00;1.10;;;13.80;99.90;;;;;;5044182;28;20090;-64
2023/08/21 05:01:17;;;;;;;2.17;0.90;;;14.00;99.90;;;;;;5044263;28;20044;-65
2023/08/21 05:03:42;;;;;;;2.60;1.00;;;14.00;99.90;;;;;;5043952;28;20563;-64
2023/08/21 05:06:08;;;;;;;1.67;0.70;;;14.00;99.90;;;;;;5045285;28;20040;-64
2023/08/21 05:08:34;;;;;;;1.48;0.80;;;14.10;99.90;;;;;;5045244;28;20526;-64
2023/08/21 05:11:00;;;;;;;3.33;1.00;;;14.20;99.90;;;;;;5047549;28;20082;-65
2023/08/21 05:13:26;;;;;;;18.05;1.80;;;14.30;99.90;;;;;;5065119;28;20055;-64
2023/08/21 05:15:57;;;;;;;7.93;1.20;;;14.40;99.90;;;;;;5060919;28;20407;-64
2023/08/21 05:18:24;;;;;;;18.00;1.80;;;14.50;99.90;;;;;;5045614;28;20515;-64
2023/08/21 05:20:50;;;;;;;2.83;0.88;;;14.70;99.90;;;;;;5048849;28;20025;-65
2023/08/21 05:23:16;;;;;;;2.63;0.82;;;14.90;99.90;;;;;;5063692;28;20044;-65
2023/08/21 05:25:46;;;;;;;4.53;1.10;;;15.10;99.90;;;;;;5063638;28;20044;-65
2023/08/21 05:28:12;;;;;;;2.55;0.93;;;15.30;99.90;;;;;;5047044;28;20278;-65
2023/08/21 05:30:38;;;;;;;4.28;1.23;;;15.60;99.90;;;;;;5054263;28;20047;-65
2023/08/21 05:33:04;;;;;;;3.67;1.30;;;15.90;99.90;;;;;;5079865;28;20388;-65
2023/08/21 05:35:33;;;;;;;5.95;2.20;;;16.10;99.90;;;;;;5058576;28;20609;-65
2023/08/21 05:37:59;;;;;;;8.07;1.75;;;16.30;99.90;;;;;;5077145;28;20083;-66
2023/08/21 05:40:24;;;;;;;5.35;1.80;;;16.40;99.90;;;;;;5026953;28;20069;-65
2023/08/21 05:42:50;;;;;;;9.25;2.05;;;16.60;99.90;;;;;;5043567;28;20069;-66
2023/08/21 05:45:16;;;;;;;6.82;2.65;;;16.80;99.90;;;;;;5028121;28;20124;-65
2023/08/21 05:47:41;;;;;;;5.50;2.08;;;17.00;99.90;;;;;;5047237;28;20511;-66
2023/08/21 05:50:07;;;;;;;8.95;2.40;;;17.30;99.90;;;;;;5049114;28;20037;-65
2023/08/21 05:52:32;;;;;;;5.60;2.28;;;17.40;99.90;;;;;;5067367;28;20036;-66
2023/08/21 05:54:58;;;;;;;9.77;2.78;;;17.60;99.90;;;;;;5067910;28;20040;-66
2023/08/21 05:57:24;;;;;;;7.70;2.28;;;17.80;99.90;;;;;;5066797;28;20099;-66
2023/08/21 05:59:49;;;;;;;7.70;2.42;;;18.10;99.90;;;;;;5047748;28;20116;-65
2023/08/21 06:02:15;;;;;;;9.93;2.85;;;18.20;99.90;;;;;;5048794;28;20071;-67
2023/08/21 06:04:42;;;;;;;11.13;3.10;;;18.30;99.90;;;;;;5081377;28;20076;-66
2023/08/21 06:07:08;;;;;;;12.63;2.60;;;18.50;99.90;;;;;;5063649;28;20036;-65
2023/08/21 06:09:35;;;;;;;10.13;2.70;;;18.50;99.90;;;;;;5067637;28;20041;-66
2023/08/21 06:12:01;;;;;;;8.57;2.92;;;18.50;99.90;;;;;;5068597;28;20048;-66
2023/08/21 06:14:30;;;;;;;8.48;2.83;;;18.50;99.90;;;;;;5059170;28;20051;-67
2023/08/21 06:17:01;;;;;;;7.93;2.55;;;18.60;99.90;;;;;;5056671;28;20523;-67
2023/08/21 06:19:27;;;;;;;7.65;2.80;;;18.70;99.90;;;;;;5067339;28;20136;-66
2023/08/21 06:21:54;;;;;;;8.57;2.83;;;18.90;99.90;;;;;;5050574;28;20051;-66
2023/08/21 06:24:19;;;;;;;10.77;2.83;;;19.00;99.90;;;;;;5046868;28;20037;-65
2023/08/21 06:26:45;;;;;;;8.05;2.50;;;19.20;99.90;;;;;;5060750;28;20078;-66
2023/08/21 06:29:11;;;;;;;7.93;2.22;;;19.30;99.90;;;;;;5050052;28;20071;-66
2023/08/21 06:31:36;;;;;;;10.93;2.78;;;19.40;99.90;;;;;;5066888;28;20066;-66
2023/08/21 06:34:02;;;;;;;8.65;3.10;;;19.60;99.90;;;;;;5066711;28;20047;-65
2023/08/21 06:36:28;;;;;;;5.55;2.30;;;19.70;99.90;;;;;;5053699;28;20574;-66
2023/08/21 06:38:55;;;;;;;10.75;3.50;;;19.80;99.90;;;;;;5046636;28;20048;-66
2023/08/21 06:41:20;;;;;;;10.40;2.53;;;19.90;99.90;;;;;;5065083;28;20119;-67
2023/08/21 06:43:46;;;;;;;9.15;3.00;;;20.00;99.90;;;;;;5066663;28;20119;-64
2023/08/21 06:46:12;;;;;;;9.18;3.35;;;20.00;99.90;;;;;;5062976;28;20040;-64
2023/08/21 06:48:43;;;;;;;12.65;3.35;;;20.00;99.90;;;;;;5046612;28;20041;-64
2023/08/21 06:51:10;;;;;;;8.98;2.40;;;20.00;99.90;;;;;;5046533;28;20049;-66
2023/08/21 06:53:35;;;;;;;8.48;2.67;;;20.00;99.90;;;;;;5047974;28;20079;-66
2023/08/21 06:56:01;;;;;;;6.90;2.20;;;20.20;99.90;;;;;;5046151;28;20500;-65
2023/08/21 06:58:26;;;;;;;10.88;2.72;;;20.30;99.90;;;;;;5061484;28;20036;-65
2023/08/21 07:00:55;;;;;;;7.50;2.35;;;20.40;99.90;;;;;;5065236;28;20041;-65
2023/08/21 07:03:22;;;;;;;8.93;2.38;;;20.50;99.90;;;;;;5046311;28;20052;-65
2023/08/21 07:05:55;;;;;;;7.63;2.60;;;20.60;99.90;;;;;;5046133;28;20059;-66
2023/08/21 07:08:23;;;;;;;7.00;2.22;;;20.70;99.90;;;;;;5046377;28;20162;-65
2023/08/21 07:10:49;;;;;;;8.27;2.40;;;20.80;99.90;;;;;;5047656;28;20080;-65
2023/08/21 07:13:15;;;;;;;6.70;2.10;;;20.90;99.90;;;;;;5048415;28;20483;-64
2023/08/21 07:15:40;;;;;;;6.55;2.20;;;21.00;99.90;;;;;;5065285;28;20068;-65
2023/08/21 07:18:07;;;;;;;7.35;2.10;;;21.10;99.90;;;;;;5062946;28;20116;-64
2023/08/21 07:20:33;;;;;;;9.80;2.03;;;21.10;99.90;;;;;;5029722;28;20040;-64
2023/08/21 07:22:59;;;;;;;7.20;2.20;;;21.20;99.90;;;;;;5047203;28;20025;-63
2023/08/21 07:25:25;;;;;;;7.68;2.35;;;21.30;99.90;;;;;;5053112;28;20045;-64
2023/08/21 07:27:53;;;;;;;7.35;1.95;;;21.30;99.90;;;;;;5062483;28;20579;-63
2023/08/21 07:30:19;;;;;;;8.75;2.22;;;21.30;99.90;;;;;;5045682;28;20047;-64
2023/08/21 07:32:46;;;;;;;12.00;2.50;;;21.40;99.90;;;;;;5029060;28;20048;-65
2023/08/21 07:35:12;;;;;;;7.32;1.83;;;21.50;99.90;;;;;;5079370;28;20416;-66
2023/08/21 07:37:37;;;;;;;9.77;1.85;;;21.40;99.90;;;;;;5046938;28;20131;-64
2023/08/21 07:40:06;;;;;;;9.25;1.70;;;21.50;99.90;;;;;;5046038;28;20419;-64
2023/08/21 07:42:31;;;;;;;7.28;1.50;;;21.50;99.90;;;;;;5045818;28;20049;-65
2023/08/21 07:44:57;;;;;;;6.22;1.55;;;21.50;99.90;;;;;;5046973;28;20586;-64
2023/08/21 07:47:22;;;;;;;8.23;1.65;;;21.60;99.90;;;;;;5058499;28;20041;-64
2023/08/21 07:49:48;;;;;;;6.30;1.40;;;21.60;99.90;;;;;;5063279;28;20040;-64
2023/08/21 07:52:15;;;;;;;4.95;1.30;;;21.60;99.90;;;;;;5045530;28;20313;-64
2023/08/21 07:54:41;;;;;;;8.07;1.48;;;21.70;99.90;;;;;;5045293;28;20094;-63
2023/08/21 07:57:07;;;;;;;9.80;1.60;;;21.60;99.90;;;;;;5044942;28;20135;-64
2023/08/21 07:59:32;;;;;;;6.03;1.33;;;21.70;99.90;;;;;;5094214;28;20130;-65
2023/08/21 08:02:00;;;;;;;7.80;1.50;;;21.70;99.90;;;;;;5063660;28;20044;-65
2023/08/21 08:04:25;;;;;;;8.90;1.42;;;21.80;99.90;;;;;;5065396;28;20455;-65
2023/08/21 08:06:51;;;;;;;8.88;1.45;;;21.90;99.90;;;;;;5066477;28;20036;-65
2023/08/21 08:09:17;;;;;;;5.57;1.33;;;21.90;99.90;;;;;;5047237;28;20090;-63
2023/08/21 08:11:42;;;;;;;5.38;1.13;;;22.00;99.90;;;;;;5044677;28;20040;-64
2023/08/21 08:14:08;;;;;;;6.72;1.67;;;22.10;99.90;;;;;;5056669;28;20059;-64
2023/08/21 08:16:33;;;;;;;7.15;1.40;;;22.20;99.90;;;;;;5062883;28;20040;-63
2023/08/21 08:18:59;;;;;;;7.38;1.38;;;22.20;99.90;;;;;;5065082;28;20062;-63
2023/08/21 08:21:24;;;;;;;7.30;1.20;;;22.30;99.90;;;;;;5064539;28;20033;-64
2023/08/21 08:23:50;;;;;;;6.18;1.38;;;22.40;99.90;;;;;;5047791;28;20036;-64
2023/08/21 08:26:16;;;;;;;4.88;1.38;;;22.40;99.90;;;;;;5044741;28;20047;-64
2023/08/21 08:28:42;;;;;;;7.03;1.60;;;22.50;99.90;;;;;;5054205;28;20092;-63
2023/08/21 08:31:16;;;;;;;7.05;1.20;;;22.50;99.90;;;;;;5060104;28;20047;-63
2023/08/21 08:33:41;;;;;;;6.75;1.13;;;22.80;99.90;;;;;;5028369;28;20400;-63
2023/08/21 08:36:07;;;;;;;6.88;1.20;;;23.10;99.90;;;;;;5045909;28;20041;-63
2023/08/21 08:38:33;;;;;;;5.75;1.50;;;23.20;99.90;;;;;;5046026;28;20076;-64
2023/08/21 08:41:01;;;;;;;6.93;1.48;;;23.30;99.90;;;;;;5044399;28;20041;-64
2023/08/21 08:43:28;;;;;;;5.90;1.40;;;23.20;99.90;;;;;;5050339;28;20040;-63
2023/08/21 08:45:57;;;;;;;4.35;1.17;;;23.20;99.90;;;;;;5062897;28;20047;-64
2023/08/21 08:48:23;;;;;;;6.10;1.48;;;23.10;99.90;;;;;;5064174;28;20036;-63
2023/08/21 08:50:50;;;;;;;5.03;1.20;;;23.10;99.90;;;;;;5097853;28;20185;-65
2023/08/21 08:53:17;;;;;;;8.88;1.52;;;23.30;99.90;;;;;;5064191;28;20093;-65
2023/08/21 08:55:43;;;;;;;6.43;1.52;;;23.50;99.90;;;;;;5045157;28;20073;-64
2023/08/21 08:58:09;;;;;;;8.13;1.67;;;23.70;99.90;;;;;;5047301;28;20039;-66
2023/08/21 09:00:34;;;;;;;6.15;1.20;;;24.00;99.90;;;;;;5064349;28;20040;-64
2023/08/21 09:03:00;;;;;;;8.43;1.60;;;24.00;99.90;;;;;;5044334;28;20182;-63
2023/08/21 09:05:25;;;;;;;4.25;1.33;;;24.00;99.90;;;;;;5045613;28;20508;-63
2023/08/21 09:08:12;;;;;;;6.40;1.20;;;23.90;99.90;;;;;;5043857;28;20041;-63
2023/08/21 09:10:39;;;;;;;6.13;1.23;;;23.80;99.90;;;;;;5049996;28;20074;-65
2023/08/21 09:13:19;;;;;;;5.60;1.52;;;23.70;99.90;;;;;;5058984;28;20037;-64
2023/08/21 09:15:55;;;;;;;4.82;1.30;;;23.70;99.90;;;;;;5043381;28;20044;-65
2023/08/21 09:18:20;;;;;;;7.47;1.85;;;23.60;99.90;;;;;;5025836;28;20095;-64
2023/08/21 09:20:48;;;;;;;6.18;1.20;;;23.60;99.90;;;;;;5023654;28;20045;-66
2023/08/21 09:23:18;;;;;;;5.38;1.60;;;23.60;99.90;;;;;;5024538;28;20049;-63
2023/08/21 09:25:48;;;;;;;4.70;1.30;;;23.60;99.90;;;;;;5032116;28;20093;-64
2023/08/21 09:28:19;;;;;;;5.75;1.27;;;23.60;99.90;;;;;;5044967;28;20048;-64
2023/08/21 09:30:51;;;;;;;4.07;1.20;;;23.80;99.90;;;;;;5044755;28;20048;-63
2023/08/21 09:33:19;;;;;;;7.60;1.45;;;23.90;99.90;;;;;;5024128;28;20049;-63
2023/08/21 09:35:45;;;;;;;8.15;1.50;;;24.00;99.90;;;;;;5025563;28;20068;-65
2023/08/21 09:38:11;;;;;;;7.63;1.52;;;24.00;99.90;;;;;;5033913;28;20037;-64
2023/08/21 09:40:51;;;;;;;4.97;1.00;;;24.00;99.90;;;;;;5043424;28;20059;-63
2023/08/21 09:43:16;;;;;;;8.10;1.40;;;24.00;99.90;;;;;;5047765;28;20117;-63
2023/08/21 09:45:46;;;;;;;4.75;1.33;;;23.90;99.90;;;;;;5063197;28;20052;-65
2023/08/21 09:48:13;;;;;;;6.70;1.10;;;23.90;99.90;;;;;;5044766;28;20044;-64
2023/08/21 09:50:40;;;;;;;4.63;1.30;;;24.00;99.90;;;;;;5026874;28;20049;-65
2023/08/21 09:53:10;;;;;;;5.97;1.10;;;23.90;99.90;;;;;;5044674;28;20071;-63
2023/08/21 09:55:36;;;;;;;7.47;1.20;;;24.00;99.90;;;;;;5063974;28;20057;-64
2023/08/21 09:58:02;;;;;;;6.03;1.30;;;24.00;99.90;;;;;;5059541;28;20040;-66
2023/08/21 10:00:38;;;;;;;7.57;1.20;;;24.00;99.90;;;;;;5027213;28;20099;-64
2023/08/21 10:03:07;;;;;;;6.35;1.40;;;24.00;99.90;;;;;;5061504;28;20063;-64
2023/08/21 10:05:36;;;;;;;6.97;1.40;;;24.00;99.90;;;;;;5061754;28;20082;-64
2023/08/21 10:08:03;;;;;;;4.38;1.10;;;24.10;99.90;;;;;;5064764;28;20356;-63
2023/08/21 10:10:35;;;;;;;5.55;1.30;;;24.10;99.90;;;;;;5064759;28;20124;-64
2023/08/21 10:13:01;;;;;;;4.95;1.17;;;24.10;99.90;;;;;;5060429;28;20496;-63
2023/08/21 10:15:32;;;;;;;5.18;1.15;;;24.00;99.90;;;;;;5044737;28;20458;-64
2023/08/21 10:17:58;;;;;;;6.57;1.20;;;24.10;99.90;;;;;;5043947;28;20041;-64
2023/08/21 10:20:25;;;;;;;3.80;0.95;;;24.10;99.90;;;;;;5044962;28;20510;-63
2023/08/21 10:23:00;;;;;;;7.18;1.50;;;24.20;99.90;;;;;;5042487;28;20037;-64
2023/08/21 10:25:26;;;;;;;6.53;1.25;;;24.30;99.90;;;;;;5062957;28;20093;-65
2023/08/21 10:27:54;;;;;;;4.15;1.25;;;24.40;99.90;;;;;;5062387;28;20032;-64
2023/08/21 10:30:23;;;;;;;6.43;1.00;;;24.40;99.90;;;;;;5043398;28;20519;-63
2023/08/21 10:32:51;;;;;;;6.90;1.35;;;24.50;99.90;;;;;;5059398;28;20085;-64
2023/08/21 10:35:22;;;;;;;5.15;1.15;;;24.60;99.90;;;;;;5092566;28;20052;-65
2023/08/21 10:38:07;;;;;;;6.80;1.17;;;24.80;99.90;;;;;;5047837;28;20041;-64
2023/08/21 10:40:34;;;;;;;7.07;1.40;;;24.90;99.90;;;;;;5046728;28;20059;-62
2023/08/21 10:43:00;;;;;;;5.68;1.13;;;25.00;99.90;;;;;;5047835;28;20037;-63
2023/08/21 10:45:26;;;;;;;4.03;1.02;;;25.00;99.90;;;;;;5048410;28;20365;-64
2023/08/21 10:47:52;;;;;;;6.15;1.45;;;25.10;99.20;;;;;;5047710;28;20094;-65
2023/08/21 10:50:17;;;;;;;4.80;1.20;;;25.00;98.90;;;;;;5048153;28;20099;-63
2023/08/21 10:52:46;;;;;;;3.53;1.08;;;25.00;98.20;;;;;;5047881;28;20048;-63
2023/08/21 10:55:14;;;;;;;6.22;1.30;;;25.00;99.10;;;;;;5047770;28;20295;-64
2023/08/21 10:57:44;;;;;;;5.30;1.40;;;25.00;98.20;;;;;;5062187;28;20121;-65
2023/08/21 11:00:11;;;;;;;5.28;1.35;;;25.10;98.20;;;;;;5067610;28;20429;-63
2023/08/21 11:02:43;;;;;;;7.57;1.55;;;25.10;98.00;;;;;;5050038;28;20562;-64
2023/08/21 11:05:10;;;;;;;4.53;1.13;;;25.00;97.80;;;;;;5047871;28;20041;-63
2023/08/21 11:07:47;;;;;;;7.75;1.70;;;25.10;98.50;;;;;;5064873;28;20115;-65
2023/08/21 11:10:16;;;;;;;6.30;1.40;;;25.10;98.30;;;;;;5067857;28;20040;-63
2023/08/21 11:12:56;;;;;;;5.88;1.38;;;25.00;97.80;;;;;;5065407;28;20088;-63
2023/08/21 11:15:23;;;;;;;5.88;1.30;;;25.00;97.80;;;;;;5027673;28;20041;-63
2023/08/21 11:17:54;;;;;;;8.77;1.42;;;25.00;98.10;;;;;;5058597;28;20510;-62
2023/08/21 11:20:20;;;;;;;5.72;1.40;;;25.10;98.70;;;;;;5065983;28;20044;-63
2023/08/21 11:22:45;;;;;;;5.55;1.30;;;25.10;98.10;;;;;;5067107;28;20668;-61
2023/08/21 11:25:11;;;;;;;5.70;1.60;;;25.20;97.30;;;;;;5050275;28;20049;-62
2023/08/21 11:27:37;;;;;;;5.50;1.20;;;25.20;97.00;;;;;;5047268;28;20045;-63
2023/08/21 11:30:04;;;;;;;6.20;1.23;;;25.30;96.80;;;;;;5064209;28;20047;-64
2023/08/21 11:32:30;;;;;;;3.70;1.10;;;25.40;97.50;;;;;;5063658;28;20044;-62
2023/08/21 11:34:57;;;;;;;7.28;1.45;;;25.40;96.40;;;;;;5049562;28;20488;-61
2023/08/21 11:37:27;;;;;;;5.10;1.30;;;25.40;96.30;;;;;;5066958;28;20159;-62
2023/08/21 11:39:59;;;;;;;4.55;1.13;;;25.40;96.90;;;;;;5053611;28;20041;-62
2023/08/21 11:42:32;;;;;;;7.47;1.45;;;25.20;96.70;;;;;;5049380;28;20043;-61
2023/08/21 11:44:59;;;;;;;6.25;1.45;;;25.10;95.80;;;;;;5046526;28;20041;-61
2023/08/21 11:47:31;;;;;;;4.68;1.30;;;25.00;96.10;;;;;;5047004;28;20048;-61
2023/08/21 11:49:56;;;;;;;6.53;1.30;;;25.00;95.80;;;;;;5048172;28;20135;-61
2023/08/21 11:52:26;;;;;;;7.85;1.60;;;25.00;95.40;;;;;;5065625;28;20135;-65
2023/08/21 11:54:53;;;;;;;6.43;1.50;;;25.10;96.40;;;;;;5065397;28;20040;-63
2023/08/21 11:57:20;;;;;;;8.35;1.77;;;25.20;96.40;;;;;;5064845;28;20055;-62
2023/08/21 11:59:55;;;;;;;7.32;1.30;;;25.40;95.80;;;;;;5048932;28;20075;-63
2023/08/21 12:02:28;;;;;;;7.03;1.50;;;25.60;94.70;;;;;;5045081;28;20045;-61
2023/08/21 12:05:00;;;;;;;7.85;1.20;;;25.50;94.10;;;;;;5045392;28;20047;-64
2023/08/21 12:07:25;;;;;;;5.05;1.08;;;25.40;93.70;;;;;;5046437;28;20082;-62
2023/08/21 12:09:51;;;;;;;5.25;1.35;;;25.30;94.60;;;;;;5046356;28;20993;-62
2023/08/21 12:12:17;;;;;;;5.75;1.20;;;25.20;94.90;;;;;;5046448;28;20053;-62
2023/08/21 12:14:43;;;;;;;6.43;1.25;;;25.30;95.10;;;;;;5060261;28;20399;-63
2023/08/21 12:17:08;;;;;;;5.40;1.25;;;25.30;95.30;;;;;;5052993;28;20118;-62
2023/08/21 12:19:34;;;;;;;6.13;1.35;;;25.40;94.80;;;;;;5046375;28;20033;-62
2023/08/21 12:21:59;;;;;;;6.70;1.40;;;25.50;94.80;;;;;;5055739;28;20568;-63
2023/08/21 12:24:25;;;;;;;5.00;1.58;;;25.50;94.60;;;;;;5066171;28;20190;-61
2023/08/21 12:26:51;;;;;;;3.95;1.20;;;25.60;93.90;;;;;;5065988;28;20424;-61
2023/08/21 12:29:16;;;;;;;6.13;1.33;;;25.60;94.60;;;;;;5064451;28;20469;-63
2023/08/21 12:31:42;;;;;;;5.78;1.55;;;25.60;95.00;;;;;;5055629;28;20622;-64
2023/08/21 12:34:08;;;;;;;5.13;1.60;;;25.50;95.30;;;;;;5046192;28;20163;-65
2023/08/21 12:36:37;;;;;;;7.15;1.40;;;25.50;95.70;;;;;;5077807;28;20489;-62
2023/08/21 12:39:04;;;;;;;7.00;1.45;;;25.50;95.40;;;;;;5045751;28;20044;-62
2023/08/21 12:41:30;;;;;;;6.43;1.50;;;25.50;94.70;;;;;;5065643;28;20469;-62
2023/08/21 12:43:55;;;;;;;6.00;1.38;;;25.40;95.00;;;;;;5055218;28;20045;-62